CYVL

Colville Lake / Tommy Kochon Airport

Colville Lake, Northwest Territories, Canada
METAR CYVL 250500Z AUTO 13007G20KT 9SM OVC034 06/04 A2965 RMK SLP056
Observed Flight Rules
May-25 @ 05:00 UTC (17 minutes ago) Visual Flight Rules
Wind Visibility Clouds
130° at 7 knots
 Gusting to 20 knots
9 miles
  • Overcast at 3,400' AGL
Temperatures Readings
Current 6°C / 43°F
Dewpoint 4°C / 39°F
Humidity 87%
Altimeter 29.65" Hg
Pressure 1005.6 hPa
Elevation 259
METAR CYVL 250500Z AUTO 13007G20KT 9SM OVC034 06/04 A2965 RMK SLP056
Observed Flight Rules
May-25 @ 05:00 UTC
(17 minutes ago)
VFR
Wind Visibility
130° at 7 knots
 Gusting to 20 knots
9 miles
Clouds
  • Overcast at 3,400' AGL
Temperature Dewpoint
6°C / 43°F 4°C / 39°F
Humidity Altimeter Pressure
87% 29.65" Hg 1005.6 hPa